Denver, Colorado
Traffic Map
Current Weather Conditions
Denver, Colorado
Broken Clouds
Broken Clouds
41°
Feels Like: 35°
Wind Chill: 35° Ceiling: 25000
Heat Index: 41° Visibility: 10mi
Dew Point: 27° Wind: 10mph
Humidity: 59% Direction: 120° (ESE)
Pressure: 30.39in Gusts: 0mph
Raw Report DataKBKF 292358Z 12009KT 10SM BKN250 05/M03 A3039 RMK AO2A SLP288 T00491026 10078 20036 57010
Traffic Incident Summary
Active as of:
Severity:
Category:
InformationThere was an issue retrieving the traffic information for this location. Please try a different location or try again shortly.
Advertisements
Track Severe Weather on mobile